SDGV weather

Public forecast

Using degrees Celsius for public forecast. Weather courtesy of forecast.io.

Closest aviation weather report (METAR) to Conde Heliport

Closest report is Carlos Prates Airport, 5.6 nm (10.3 km) NNW. Retrieved 2020/08/15 11:00 UTC (11 minutes ago):

SBPR 151100Z 12005KT CAVOK 19/14 Q1019

Closest aviation forecast (TAF) to Conde Heliport

Forecast is more than 12 hours old.

Closest forecast is Pampulha - Carlos Drummond de Andrade Airport, 8.6 nm (15.9 km) N. Retrieved 2012/03/26 18:12 UTC (8 years ago):

TAF SBBH 261639Z 2618/2706 09005KT 9999 SCT030 TX28/2618Z TN20/2705Z PROB30 2619/2624 8000 TSRA BKN035 FEW045CB RMK PGG